Time;durP1;ratioP1;P1;durP2;ratioP2;P2;SDS_P1;SDS_P2;PMS_P1;PMS_P2;Temp;Humidity;BMP_temperature;BMP_pressure;BME280_temperature;BME280_humidity;BME280_pressure;Samples;Min_cycle;Max_cycle;Signal;HPM_P1;HPM_P2
2023/08/04 00:01:24;;;;;;;;;;;;;;;22.12;57.53;95247.28;10439917;28;1896;-68
2023/08/04 00:06:24;;;;;;;;;;;;;;;22.11;57.46;95257.09;10441137;28;1985;-70
2023/08/04 00:11:25;;;;;;;;;;;;;;;22.11;57.49;95254.44;10445883;28;1908;-72
2023/08/04 00:16:25;;;;;;;;;;;;;;;22.11;57.46;95235.97;10463421;28;1881;-67
2023/08/04 00:21:25;;;;;;;;;;;;;;;22.11;57.83;95214.84;10449872;28;1924;-67
2023/08/04 00:26:26;;;;;;;;;;;;;;;22.11;57.43;95228.03;10444221;28;2266;-67
2023/08/04 00:31:26;;;;;;;;;;;;;;;22.12;57.77;95242.00;10432498;28;2157;-68
2023/08/04 00:36:26;;;;;;;;;;;;;;;22.12;57.42;95245.44;10436734;28;1888;-67
2023/08/04 00:41:26;;;;;;;;;;;;;;;22.10;57.25;95242.31;10441008;28;4537;-68
2023/08/04 00:46:27;;;;;;;;;;;;;;;22.11;57.22;95238.59;10438145;28;1902;-68
2023/08/04 00:51:27;;;;;;;;;;;;;;;22.11;57.06;95266.84;10444492;28;1826;-65
2023/08/04 00:56:27;;;;;;;;;;;;;;;22.11;57.04;95256.28;10445806;28;1888;-68
2023/08/04 01:01:28;;;;;;;;;;;;;;;22.10;57.49;95244.94;10449141;28;1926;-67
2023/08/04 01:06:28;;;;;;;;;;;;;;;22.11;57.61;95238.59;10441955;28;1988;-68
2023/08/04 01:11:30;;;;;;;;;;;;;;;22.11;57.62;95229.91;10445785;28;1898;-67
2023/08/04 01:16:30;;;;;;;;;;;;;;;22.11;57.75;95230.69;10478378;28;1977;-67
2023/08/04 01:21:40;;;;;;;;;;;;;;;22.11;57.32;95243.09;10449854;28;2596;-67
2023/08/04 01:26:41;;;;;;;;;;;;;;;22.11;57.03;95264.22;10447395;28;2022;-67
2023/08/04 01:31:41;;;;;;;;;;;;;;;22.10;57.12;95255.50;10455117;28;1915;-67
2023/08/04 01:36:42;;;;;;;;;;;;;;;22.12;56.97;95236.72;10482576;28;1877;-67
2023/08/04 01:41:42;;;;;;;;;;;;;;;22.11;57.12;95235.19;10453178;28;4560;-67
2023/08/04 01:46:43;;;;;;;;;;;;;;;22.10;57.26;95207.19;10450680;28;1934;-67
2023/08/04 01:51:43;;;;;;;;;;;;;;;22.10;57.15;95205.34;10441802;28;1996;-67
2023/08/04 01:56:43;;;;;;;;;;;;;;;22.10;57.28;95194.78;10448777;28;2015;-68
2023/08/04 02:01:44;;;;;;;;;;;;;;;22.10;56.92;95192.16;10455457;28;1917;-67
2023/08/04 02:06:44;;;;;;;;;;;;;;;22.10;56.77;95181.59;10448298;28;1970;-67
2023/08/04 02:11:45;;;;;;;;;;;;;;;22.10;56.70;95186.09;10448227;28;1984;-67
2023/08/04 02:16:45;;;;;;;;;;;;;;;22.09;57.16;95185.28;10445618;28;2269;-67
2023/08/04 02:21:45;;;;;;;;;;;;;;;22.10;56.86;95191.38;10446847;28;1927;-67
2023/08/04 02:26:46;;;;;;;;;;;;;;;22.10;56.81;95194.00;10442049;28;2021;-67
2023/08/04 02:31:46;;;;;;;;;;;;;;;22.10;56.79;95194.78;10437410;28;1954;-67
2023/08/04 02:36:46;;;;;;;;;;;;;;;22.09;56.53;95195.09;10437730;28;1894;-67
2023/08/04 02:41:46;;;;;;;;;;;;;;;22.07;56.00;95176.91;10437204;28;1910;-64
2023/08/04 02:46:47;;;;;;;;;;;;;;;22.07;56.08;95168.97;10445784;28;1897;-67
2023/08/04 02:51:47;;;;;;;;;;;;;;;22.07;56.42;95173.50;10445634;28;1913;-67
2023/08/04 02:56:47;;;;;;;;;;;;;;;22.09;56.10;95200.38;10439680;28;1905;-66
2023/08/04 03:01:47;;;;;;;;;;;;;;;22.08;56.48;95209.34;10444784;28;1878;-67
2023/08/04 03:06:48;;;;;;;;;;;;;;;22.07;56.34;95205.94;10442575;28;2140;-68
2023/08/04 03:11:48;;;;;;;;;;;;;;;22.07;55.96;95203.28;10444496;28;2296;-67
2023/08/04 03:16:49;;;;;;;;;;;;;;;22.06;56.16;95209.66;10445381;28;1850;-67
2023/08/04 03:21:49;;;;;;;;;;;;;;;22.06;55.90;95211.50;10443334;28;1842;-68
2023/08/04 03:26:50;;;;;;;;;;;;;;;22.06;55.96;95220.22;10443800;28;1929;-67
2023/08/04 03:31:50;;;;;;;;;;;;;;;22.07;55.71;95210.44;10438599;28;1910;-67
2023/08/04 03:36:51;;;;;;;;;;;;;;;22.07;55.65;95228.94;10440076;28;1873;-67
2023/08/04 03:41:51;;;;;;;;;;;;;;;22.06;55.67;95236.06;10442917;28;4465;-67
2023/08/04 03:46:51;;;;;;;;;;;;;;;22.06;55.63;95253.75;10442245;28;2152;-67
2023/08/04 03:51:51;;;;;;;;;;;;;;;22.05;55.54;95258.22;10441109;28;1877;-67
2023/08/04 03:56:52;;;;;;;;;;;;;;;22.06;55.61;95259.81;10447845;28;1873;-67
2023/08/04 04:01:52;;;;;;;;;;;;;;;22.06;55.54;95265.09;10440399;28;2045;-67
2023/08/04 04:06:52;;;;;;;;;;;;;;;22.06;55.54;95248.47;10440907;28;1969;-67
2023/08/04 04:11:52;;;;;;;;;;;;;;;22.05;55.54;95231.84;10441605;28;2270;-67
2023/08/04 04:16:53;;;;;;;;;;;;;;;22.05;55.49;95223.91;10474243;28;1928;-67
2023/08/04 04:21:53;;;;;;;;;;;;;;;22.06;55.61;95238.69;10441045;28;1939;-66
2023/08/04 04:26:53;;;;;;;;;;;;;;;22.06;55.34;95233.41;10449659;28;1973;-66
2023/08/04 04:31:53;;;;;;;;;;;;;;;22.07;55.39;95266.63;10445244;28;2028;-65
2023/08/04 04:36:57;;;;;;;;;;;;;;;22.07;55.73;95250.03;10439709;28;1937;-65
2023/08/04 04:41:57;;;;;;;;;;;;;;;22.06;55.29;95267.72;10448722;28;4478;-65
2023/08/04 04:46:58;;;;;;;;;;;;;;;22.06;55.36;95274.84;10451504;28;1934;-66
2023/08/04 04:51:58;;;;;;;;;;;;;;;22.07;55.39;95266.63;10446142;28;1913;-65
2023/08/04 04:56:58;;;;;;;;;;;;;;;22.06;55.43;95254.53;10444350;28;1888;-65
2023/08/04 05:01:59;;;;;;;;;;;;;;;22.06;55.43;95248.47;10448198;28;1826;-65
2023/08/04 05:06:59;;;;;;;;;;;;;;;22.06;54.99;95259.03;10445507;28;2308;-66
2023/08/04 05:11:59;;;;;;;;;;;;;;;22.06;55.10;95259.03;10445592;28;1893;-63
2023/08/04 05:17:00;;;;;;;;;;;;;;;22.06;55.39;95248.47;10447155;28;2006;-62
2023/08/04 05:22:00;;;;;;;;;;;;;;;22.06;55.12;95243.19;10450950;28;1886;-66
2023/08/04 05:27:01;;;;;;;;;;;;;;;22.06;54.83;95253.75;10440457;28;1913;-66
2023/08/04 05:32:02;;;;;;;;;;;;;;;22.05;55.21;95258.22;10444582;28;1866;-66
2023/08/04 05:37:02;;;;;;;;;;;;;;;22.05;54.92;95268.03;10453071;28;1842;-65
2023/08/04 05:42:02;;;;;;;;;;;;;;;22.06;54.94;95266.94;10447455;28;4438;-66
2023/08/04 05:47:03;;;;;;;;;;;;;;;22.06;54.82;95272.22;10441842;28;1883;-66
2023/08/04 05:52:03;;;;;;;;;;;;;;;22.05;54.70;95268.78;10456656;28;1994;-66
2023/08/04 05:57:03;;;;;;;;;;;;;;;22.05;54.91;95263.50;10442417;28;1945;-66
2023/08/04 06:02:04;;;;;;;;;;;;;;;22.05;54.77;95263.50;10444438;28;2268;-68
2023/08/04 06:07:04;;;;;;;;;;;;;;;22.05;55.00;95268.78;10447849;28;2050;-67
2023/08/04 06:12:04;;;;;;;;;;;;;;;22.06;54.73;95270.38;10440463;28;1933;-67
2023/08/04 06:17:05;;;;;;;;;;;;;;;22.06;54.13;95270.38;10449946;28;1850;-65
2023/08/04 06:22:05;;;;;;;;;;;;;;;22.06;54.85;95274.84;10451079;28;1555;-65
2023/08/04 06:27:05;;;;;;;;;;;;;;;22.06;54.69;95278.28;10449931;28;1963;-66
2023/08/04 06:32:07;;;;;;;;;;;;;;;22.07;54.63;95271.16;10454001;28;1698;-65
2023/08/04 06:37:08;;;;;;;;;;;;;;;22.07;54.48;95273.78;10450859;28;1458;-65
2023/08/04 06:42:08;;;;;;;;;;;;;;;22.07;54.70;95265.88;10451979;28;4399;-65
2023/08/04 06:47:08;;;;;;;;;;;;;;;22.08;54.47;95265.56;10454095;28;2021;-66
2023/08/04 06:52:09;;;;;;;;;;;;;;;22.07;54.45;95287.75;10458300;28;1449;-66
2023/08/04 06:57:09;;;;;;;;;;;;;;;22.09;54.54;95296.16;10457708;28;2345;-65
2023/08/04 07:02:09;;;;;;;;;;;;;;;22.11;54.64;95287.97;10454356;28;1483;-65
2023/08/04 07:07:10;;;;;;;;;;;;;;;22.11;54.75;95283.47;10447811;28;2012;-65
2023/08/04 07:12:10;;;;;;;;;;;;;;;22.12;54.73;95300.88;10449898;28;1623;-66
2023/08/04 07:17:10;;;;;;;;;;;;;;;22.12;54.58;95295.59;10453293;28;1608;-65
2023/08/04 07:22:11;;;;;;;;;;;;;;;22.13;54.58;95296.38;10445355;28;1441;-66
2023/08/04 07:27:11;;;;;;;;;;;;;;;22.13;54.71;95291.88;10454902;28;1971;-66
2023/08/04 07:32:11;;;;;;;;;;;;;;;22.13;54.88;95291.09;10450362;28;1480;-67
2023/08/04 07:37:11;;;;;;;;;;;;;;;22.15;54.79;95291.59;10448715;28;1428;-67
2023/08/04 07:42:12;;;;;;;;;;;;;;;22.15;55.11;95289.72;10445554;28;4513;-66
2023/08/04 07:47:12;;;;;;;;;;;;;;;22.16;54.84;95287.84;10453813;28;1959;-66
2023/08/04 07:52:13;;;;;;;;;;;;;;;22.16;55.20;95301.06;10458570;28;1465;-67
2023/08/04 07:57:13;;;;;;;;;;;;;;;22.16;54.92;95304.47;10454306;28;2166;-66
2023/08/04 08:02:13;;;;;;;;;;;;;;;22.18;54.96;95304.19;10450054;28;1620;-66
2023/08/04 08:07:13;;;;;;;;;;;;;;;22.18;55.08;95307.59;10454653;28;1984;-65
2023/08/04 08:12:14;;;;;;;;;;;;;;;22.19;55.26;95300.47;10451394;28;1799;-66
2023/08/04 08:17:14;;;;;;;;;;;;;;;22.19;55.23;95290.72;10435382;28;2069;-65
2023/08/04 08:22:14;;;;;;;;;;;;;;;22.20;55.18;95281.69;10449198;28;1977;-66
2023/08/04 08:27:14;;;;;;;;;;;;;;;22.20;55.17;95273.78;10445021;28;1905;-65
2023/08/04 08:32:15;;;;;;;;;;;;;;;22.22;55.26;95276.91;10443662;28;1966;-65
2023/08/04 08:37:15;;;;;;;;;;;;;;;22.22;55.29;95281.41;10450304;28;1909;-64
2023/08/04 08:42:15;;;;;;;;;;;;;;;22.22;55.08;95279.53;10450401;28;4490;-65
2023/08/04 08:47:16;;;;;;;;;;;;;;;22.23;55.14;95285.59;10438711;28;1944;-66
2023/08/04 08:52:16;;;;;;;;;;;;;;;22.22;55.33;95276.91;10443291;28;2197;-65
2023/08/04 08:57:16;;;;;;;;;;;;;;;22.22;55.27;95284.81;10448838;28;1927;-66
2023/08/04 09:02:16;;;;;;;;;;;;;;;22.23;55.35;95282.97;10444491;28;1918;-66
2023/08/04 09:07:17;;;;;;;;;;;;;;;22.23;54.99;95285.59;10442872;28;1986;-66
2023/08/04 09:12:17;;;;;;;;;;;;;;;22.22;55.00;95270.84;10447655;28;1906;-65
2023/08/04 09:17:47;;;;;;;;;;;;;;;22.23;54.99;95272.41;10440843;28;1871;-65
2023/08/04 09:22:47;;;;;;;;;;;;;;;22.24;55.19;95274.75;10443787;28;2258;-67
2023/08/04 09:27:50;;;;;;;;;;;;;;;22.23;55.11;95265.28;10439557;28;2013;-65
2023/08/04 09:32:51;;;;;;;;;;;;;;;22.24;55.44;95266.81;10443614;28;2022;-67
2023/08/04 09:37:53;;;;;;;;;;;;;;;22.26;55.13;95264.69;10443407;28;2008;-67
2023/08/04 09:42:53;;;;;;;;;;;;;;;22.26;55.20;95266.53;10444010;28;4587;-66
2023/08/04 09:47:55;;;;;;;;;;;;;;;22.25;55.07;95271.03;10477689;28;2370;-67
2023/08/04 09:53:02;;;;;;;;;;;;;;;22.26;54.98;95263.88;10440631;28;1918;-66
2023/08/04 09:58:02;;;;;;;;;;;;;;;22.25;55.05;95268.41;10448208;28;2252;-67
2023/08/04 10:03:02;;;;;;;;;;;;;;;22.26;54.92;95269.16;10443434;28;1889;-67
2023/08/04 10:08:03;;;;;;;;;;;;;;;22.25;55.08;95263.13;10441375;28;1990;-67
2023/08/04 10:13:04;;;;;;;;;;;;;;;22.25;55.07;95268.41;10430215;28;1866;-67
2023/08/04 10:18:04;;;;;;;;;;;;;;;22.26;54.85;95259.41;10439289;28;2069;-65
2023/08/04 10:23:04;;;;;;;;;;;;;;;22.27;55.13;95271.53;10461038;28;1885;-67
2023/08/04 10:28:05;;;;;;;;;;;;;;;22.30;55.35;95262.22;10439909;28;1910;-68
2023/08/04 10:33:09;;;;;;;;;;;;;;;22.29;54.79;95265.94;10439772;28;1936;-67
2023/08/04 10:38:09;;;;;;;;;;;;;;;22.28;54.66;95254.59;10437809;28;2077;-66
2023/08/04 10:43:09;;;;;;;;;;;;;;;22.30;55.06;95275.41;10437244;28;4489;-68
2023/08/04 10:48:10;;;;;;;;;;;;;;;22.30;55.10;95280.69;10441971;28;1942;-67
2023/08/04 10:53:10;;;;;;;;;;;;;;;22.32;55.74;95271.41;10470124;28;1988;-68
2023/08/04 10:58:14;;;;;;;;;;;;;;;22.32;55.13;95271.41;10441035;28;1889;-68
2023/08/04 11:03:36;;;;;;;;;;;;;;;22.30;54.64;95299.19;10442993;28;1957;-68
2023/08/04 11:08:36;;;;;;;;;;;;;;;22.30;54.59;95328.22;10443958;28;2017;-68
2023/08/04 11:13:37;;;;;;;;;;;;;;;22.29;54.53;95342.53;10436863;28;1945;-67
2023/08/04 11:18:38;;;;;;;;;;;;;;;22.28;54.26;95336.44;10438305;28;2021;-68
2023/08/04 11:23:38;;;;;;;;;;;;;;;22.29;54.31;95321.41;10443830;28;1893;-68
2023/08/04 11:28:38;;;;;;;;;;;;;;;22.30;54.74;95326.38;10436913;28;2021;-67
2023/08/04 11:33:42;;;;;;;;;;;;;;;22.31;54.50;95306.81;10435898;28;2121;-68
2023/08/04 11:38:42;;;;;;;;;;;;;;;22.32;54.87;95297.03;10436563;28;2585;-67
2023/08/04 11:43:42;;;;;;;;;;;;;;;22.33;54.69;95286.19;10447751;28;4537;-67
2023/08/04 11:48:43;;;;;;;;;;;;;;;22.34;54.75;95281.69;10469834;28;1939;-67
2023/08/04 11:53:46;;;;;;;;;;;;;;;22.33;54.40;95270.34;10433728;28;2245;-67
2023/08/04 11:58:50;;;;;;;;;;;;;;;22.34;54.50;95268.50;10440026;28;1954;-67
2023/08/04 12:03:50;;;;;;;;;;;;;;;22.34;54.66;95279.81;10436297;28;1869;-68
2023/08/04 12:08:51;;;;;;;;;;;;;;;22.35;54.47;95278.75;10470856;28;2011;-67
2023/08/04 12:13:51;;;;;;;;;;;;;;;22.36;54.66;95290.88;10436697;28;1887;-67
2023/08/04 12:18:51;;;;;;;;;;;;;;;22.36;54.45;95290.88;10434372;28;2218;-67
2023/08/04 12:23:53;;;;;;;;;;;;;;;22.36;54.45;95285.59;10443713;28;2087;-66
2023/08/04 12:28:53;;;;;;;;;;;;;;;22.36;54.37;95282.94;10436725;28;1973;-68
2023/08/04 12:33:53;;;;;;;;;;;;;;;22.39;54.47;95268.38;10436138;28;1950;-68
2023/08/04 12:38:54;;;;;;;;;;;;;;;22.39;54.49;95261.25;10433492;28;2468;-69
2023/08/04 12:43:54;;;;;;;;;;;;;;;22.40;54.66;95269.94;10446683;28;1842;-70
2023/08/04 12:48:55;;;;;;;;;;;;;;;22.41;54.42;95274.13;10436220;28;1994;-68
2023/08/04 12:53:55;;;;;;;;;;;;;;;22.41;54.42;95269.66;10437236;28;1901;-69
2023/08/04 12:58:55;;;;;;;;;;;;;;;22.39;53.33;95266.53;10467671;28;1941;-66
2023/08/04 13:03:55;;;;;;;;;;;;;;;22.36;53.57;95280.31;10441107;28;1911;-68
2023/08/04 13:08:56;;;;;;;;;;;;;;;22.39;53.89;95273.66;10475222;28;2265;-66
2023/08/04 13:13:56;;;;;;;;;;;;;;;22.38;53.80;95275.50;10442833;28;1962;-68
2023/08/04 13:18:56;;;;;;;;;;;;;;;22.36;53.65;95264.47;10446087;28;1946;-66
2023/08/04 13:23:56;;;;;;;;;;;;;;;22.38;53.82;95264.19;10445690;28;1862;-68
2023/08/04 13:28:57;;;;;;;;;;;;;;;22.35;53.32;95257.63;10446695;28;1969;-67
2023/08/04 13:33:57;;;;;;;;;;;;;;;22.33;52.98;95265.06;10446476;28;1922;-65
2023/08/04 13:38:57;;;;;;;;;;;;;;;22.32;52.41;95268.78;10446127;28;1936;-66
2023/08/04 13:43:57;;;;;;;;;;;;;;;22.30;52.64;95270.94;10446105;28;4680;-65
2023/08/04 13:48:58;;;;;;;;;;;;;;;22.30;52.28;95273.56;10444021;28;2007;-66
2023/08/04 13:53:58;;;;;;;;;;;;;;;22.31;52.04;95277.00;10449291;28;1974;-64
2023/08/04 13:58:59;;;;;;;;;;;;;;;22.30;52.61;95280.69;10451186;28;1897;-65
2023/08/04 14:03:59;;;;;;;;;;;;;;;22.32;52.71;95294.38;10445607;28;2022;-67
2023/08/04 14:09:00;;;;;;;;;;;;;;;22.32;53.42;95289.91;10447199;28;1922;-61
2023/08/04 14:14:01;;;;;;;;;;;;;;;22.37;53.88;95296.94;10448139;28;1995;-67
2023/08/04 14:19:01;;;;;;;;;;;;;;;22.39;54.32;95300.84;10445245;28;2015;-66
2023/08/04 14:24:02;;;;;;;;;;;;;;;22.42;54.92;95302.88;10456614;28;1969;-70
2023/08/04 14:29:04;;;;;;;;;;;;;;;22.44;54.73;95282.25;10453455;28;2456;-70
2023/08/04 14:34:04;;;;;;;;;;;;;;;22.46;54.97;95280.09;10441570;28;2046;-69
2023/08/04 14:39:04;;;;;;;;;;;;;;;22.48;55.03;95277.94;10442308;28;1929;-68
2023/08/04 14:44:04;;;;;;;;;;;;;;;22.51;55.51;95273.91;10449280;28;4556;-68
2023/08/04 14:49:05;;;;;;;;;;;;;;;22.51;55.35;95269.44;10444374;28;1957;-66
2023/08/04 14:54:05;;;;;;;;;;;;;;;22.53;55.46;95269.13;10444501;28;1912;-69
2023/08/04 14:59:05;;;;;;;;;;;;;;;22.54;55.74;95258.28;10441711;28;1901;-67
2023/08/04 15:04:06;;;;;;;;;;;;;;;22.53;55.55;95259.34;10443821;28;2206;-67
2023/08/04 15:09:07;;;;;;;;;;;;;;;22.54;55.49;95254.84;10443525;28;1902;-67
2023/08/04 15:14:07;;;;;;;;;;;;;;;22.54;55.32;95246.94;10443910;28;1934;-67
2023/08/04 15:19:08;;;;;;;;;;;;;;;22.53;55.50;95251.41;10459055;28;2010;-68
2023/08/04 15:24:08;;;;;;;;;;;;;;;22.53;55.45;95256.72;10437290;28;2772;-67
2023/08/04 15:29:08;;;;;;;;;;;;;;;22.53;55.39;95262.00;10465927;28;1974;-66
2023/08/04 15:34:09;;;;;;;;;;;;;;;22.53;55.62;95264.63;10445425;28;1972;-68
2023/08/04 15:39:09;;;;;;;;;;;;;;;22.52;55.35;95276.25;10449200;28;1959;-66
2023/08/04 15:44:09;;;;;;;;;;;;;;;22.53;55.58;95258.56;10453348;28;4529;-67
2023/08/04 15:49:10;;;;;;;;;;;;;;;22.51;55.42;95261.50;10443340;28;1910;-69
2023/08/04 15:54:10;;;;;;;;;;;;;;;22.52;55.51;95264.94;10443775;28;2100;-67
2023/08/04 15:59:10;;;;;;;;;;;;;;;22.51;55.33;95258.88;10452557;28;1834;-69
2023/08/04 16:04:10;;;;;;;;;;;;;;;22.52;55.38;95255.13;10445175;28;1903;-66
2023/08/04 16:09:11;;;;;;;;;;;;;;;22.51;55.34;95250.16;10449884;28;1981;-67
2023/08/04 16:14:11;;;;;;;;;;;;;;;22.51;55.37;95253.59;10450389;28;1922;-67
2023/08/04 16:19:11;;;;;;;;;;;;;;;22.50;55.41;95262.56;10443050;28;2387;-67
2023/08/04 16:24:12;;;;;;;;;;;;;;;22.51;55.57;95268.63;10440528;28;2101;-67
2023/08/04 16:29:12;;;;;;;;;;;;;;;22.51;55.42;95272.06;10471853;28;1920;-67
2023/08/04 16:34:12;;;;;;;;;;;;;;;22.51;55.57;95272.06;10448853;28;1913;-67
2023/08/04 16:39:13;;;;;;;;;;;;;;;22.51;55.58;95280.00;10439446;28;2147;-67
2023/08/04 16:44:13;;;;;;;;;;;;;;;22.51;55.51;95298.47;10450408;28;4493;-67
2023/08/04 16:49:13;;;;;;;;;;;;;;;22.51;55.56;95309.06;10450568;28;1972;-67
2023/08/04 16:54:13;;;;;;;;;;;;;;;22.51;55.49;95316.19;10455264;28;1956;-67
2023/08/04 16:59:14;;;;;;;;;;;;;;;22.51;55.33;95322.25;10461187;28;1975;-67
2023/08/04 17:04:14;;;;;;;;;;;;;;;22.50;55.38;95315.41;10454190;28;1869;-67
2023/08/04 17:09:14;;;;;;;;;;;;;;;22.50;55.45;95301.44;10486391;28;2071;-66
2023/08/04 17:14:15;;;;;;;;;;;;;;;22.50;55.35;95286.34;10451942;28;1854;-66
2023/08/04 17:19:15;;;;;;;;;;;;;;;22.51;55.74;95281.84;10456625;28;2253;-67
2023/08/04 17:24:16;;;;;;;;;;;;;;;22.50;55.29;95275.78;10451359;28;2005;-67
2023/08/04 17:29:16;;;;;;;;;;;;;;;22.50;55.59;95275.78;10449202;28;1977;-67
2023/08/04 17:34:17;;;;;;;;;;;;;;;22.50;55.41;95304.81;10466328;28;2208;-67
2023/08/04 17:39:17;;;;;;;;;;;;;;;22.50;55.59;95322.56;10454307;28;1941;-69
2023/08/04 17:44:17;;;;;;;;;;;;;;;22.50;55.45;95327.84;10458172;28;1842;-68
2023/08/04 17:49:18;;;;;;;;;;;;;;;22.48;55.18;95327.34;10484444;28;1984;-68
2023/08/04 17:54:19;;;;;;;;;;;;;;;22.49;55.31;95339.47;10449006;28;2032;-67
2023/08/04 17:59:19;;;;;;;;;;;;;;;22.49;55.18;95332.34;10452568;28;2010;-67
2023/08/04 18:04:21;;;;;;;;;;;;;;;22.48;55.55;95330.75;10448746;28;1970;-67
2023/08/04 18:09:21;;;;;;;;;;;;;;;22.48;55.43;95341.31;10447960;28;1910;-67
2023/08/04 18:14:21;;;;;;;;;;;;;;;22.48;55.16;95356.41;10449426;28;2209;-67
2023/08/04 18:19:21;;;;;;;;;;;;;;;22.47;55.51;95345.06;10451316;28;1869;-67
2023/08/04 18:24:24;;;;;;;;;;;;;;;22.48;55.11;95346.59;10449358;28;1905;-67
2023/08/04 18:29:24;;;;;;;;;;;;;;;22.47;55.34;95358.25;10447948;28;2004;-67
2023/08/04 18:34:24;;;;;;;;;;;;;;;22.47;55.18;95371.47;10456456;28;1857;-67
2023/08/04 18:39:24;;;;;;;;;;;;;;;22.47;55.14;95376.75;10435941;28;1924;-67
2023/08/04 18:44:25;;;;;;;;;;;;;;;22.46;55.10;95369.88;10445015;28;4486;-67
2023/08/04 18:49:25;;;;;;;;;;;;;;;22.47;55.19;95381.25;10452548;28;1981;-67
2023/08/04 18:54:26;;;;;;;;;;;;;;;22.46;55.01;95391.00;10452255;28;1829;-67
2023/08/04 18:59:26;;;;;;;;;;;;;;;22.47;55.10;95382.03;10456647;28;1983;-68
2023/08/04 19:04:27;;;;;;;;;;;;;;;22.46;55.00;95383.09;10463776;28;1875;-67
2023/08/04 19:09:27;;;;;;;;;;;;;;;22.45;55.05;95389.47;10467916;28;2293;-67
2023/08/04 19:14:27;;;;;;;;;;;;;;;22.44;54.99;95398.44;10451868;28;1806;-67
2023/08/04 19:19:27;;;;;;;;;;;;;;;22.45;55.08;95394.75;10447565;28;1882;-67
2023/08/04 19:24:28;;;;;;;;;;;;;;;22.45;54.91;95393.97;10448959;28;1884;-66
2023/08/04 19:29:28;;;;;;;;;;;;;;;22.46;54.95;95400.81;10441043;28;1976;-67
2023/08/04 19:34:28;;;;;;;;;;;;;;;22.44;54.95;95387.88;10446635;28;2156;-66
2023/08/04 19:39:28;;;;;;;;;;;;;;;22.45;55.15;95392.09;10445168;28;1994;-66
2023/08/04 19:44:30;;;;;;;;;;;;;;;22.44;54.86;95393.16;10451633;28;1868;-66
2023/08/04 19:49:30;;;;;;;;;;;;;;;22.45;54.99;95393.97;10447892;28;2061;-66
2023/08/04 19:54:31;;;;;;;;;;;;;;;22.44;54.98;95377.31;10449284;28;1961;-67
2023/08/04 19:59:31;;;;;;;;;;;;;;;22.43;54.78;95373.13;10450426;28;1989;-66
2023/08/04 20:04:31;;;;;;;;;;;;;;;22.43;54.85;95367.84;10448910;28;2373;-67
2023/08/04 20:09:31;;;;;;;;;;;;;;;22.42;54.84;95376.84;10447680;28;1971;-67
2023/08/04 20:14:32;;;;;;;;;;;;;;;22.44;54.84;95381.84;10447428;28;1838;-68
2023/08/04 20:19:32;;;;;;;;;;;;;;;22.43;54.96;95370.50;10446447;28;1901;-71
2023/08/04 20:24:32;;;;;;;;;;;;;;;22.43;55.05;95381.06;10447241;28;1822;-66
2023/08/04 20:29:32;;;;;;;;;;;;;;;22.43;54.62;95374.97;10443750;28;1979;-67
2023/08/04 20:34:33;;;;;;;;;;;;;;;22.44;54.67;95397.69;10446423;28;1941;-67
2023/08/04 20:39:33;;;;;;;;;;;;;;;22.44;54.96;95409.00;10450538;28;1891;-68
2023/08/04 20:44:33;;;;;;;;;;;;;;;22.43;54.63;95401.41;10445107;28;4368;-67
2023/08/04 20:49:33;;;;;;;;;;;;;;;22.43;54.70;95406.69;10438627;28;1914;-66
2023/08/04 20:54:34;;;;;;;;;;;;;;;22.42;54.51;95421.72;10437685;28;1873;-67
2023/08/04 20:59:35;;;;;;;;;;;;;;;22.44;54.76;95424.09;10453005;28;2078;-66
2023/08/04 21:04:35;;;;;;;;;;;;;;;22.43;54.55;95422.53;10437536;28;2328;-67
2023/08/04 21:09:38;;;;;;;;;;;;;;;22.42;54.80;95424.38;10441952;28;1985;-66
2023/08/04 21:14:38;;;;;;;;;;;;;;;22.43;54.49;95422.53;10445520;28;1930;-67
2023/08/04 21:19:38;;;;;;;;;;;;;;;22.42;54.75;95419.09;10464174;28;2007;-66
2023/08/04 21:24:38;;;;;;;;;;;;;;;22.43;54.64;95420.66;10440474;28;1835;-67
2023/08/04 21:29:39;;;;;;;;;;;;;;;22.42;54.72;95420.97;10482752;28;1925;-67
2023/08/04 21:34:40;;;;;;;;;;;;;;;22.42;54.63;95424.38;10446554;28;2104;-66
2023/08/04 21:39:40;;;;;;;;;;;;;;;22.41;54.61;95408.81;10444260;28;1893;-66
2023/08/04 21:44:40;;;;;;;;;;;;;;;22.41;54.66;95401.69;10444934;28;1876;-66
2023/08/04 21:49:41;;;;;;;;;;;;;;;22.40;54.41;95400.13;10447905;28;1967;-67
2023/08/04 21:54:41;;;;;;;;;;;;;;;22.41;54.35;95409.63;10452654;28;1893;-67
2023/08/04 21:59:42;;;;;;;;;;;;;;;22.41;54.41;95416.75;10446520;28;2186;-66
2023/08/04 22:04:42;;;;;;;;;;;;;;;22.42;54.25;95426.25;10448621;28;1937;-67
2023/08/04 22:09:42;;;;;;;;;;;;;;;22.41;54.64;95443.94;10445524;28;1972;-66
2023/08/04 22:14:42;;;;;;;;;;;;;;;22.41;54.25;95440.53;10442271;28;1896;-67
2023/08/04 22:19:43;;;;;;;;;;;;;;;22.41;54.25;95448.44;10439992;28;1889;-67
2023/08/04 22:24:43;;;;;;;;;;;;;;;22.41;54.37;95448.44;10444340;28;1889;-66
2023/08/04 22:29:43;;;;;;;;;;;;;;;22.41;54.37;95435.22;10441784;28;1933;-66
2023/08/04 22:34:43;;;;;;;;;;;;;;;22.40;54.29;95445.00;10479995;28;1826;-66
2023/08/04 22:39:44;;;;;;;;;;;;;;;22.40;54.28;95445.00;10450017;28;1854;-66
2023/08/04 22:44:45;;;;;;;;;;;;;;;22.41;54.35;95443.16;10448697;28;4510;-67
2023/08/04 22:49:45;;;;;;;;;;;;;;;22.40;54.26;95447.66;10447485;28;1971;-66
2023/08/04 22:54:46;;;;;;;;;;;;;;;22.41;54.23;95440.53;10443256;28;2033;-66
2023/08/04 22:59:46;;;;;;;;;;;;;;;22.41;54.34;95422.03;10439400;28;1993;-66
2023/08/04 23:04:46;;;;;;;;;;;;;;;22.40;54.41;95415.97;10452876;28;1839;-66
2023/08/04 23:09:46;;;;;;;;;;;;;;;22.40;54.44;95415.97;10453034;28;2461;-68
2023/08/04 23:14:47;;;;;;;;;;;;;;;22.41;54.18;95411.47;10443962;28;1874;-71
2023/08/04 23:19:48;;;;;;;;;;;;;;;22.39;54.22;95401.19;10448632;28;2069;-71
2023/08/04 23:24:48;;;;;;;;;;;;;;;22.41;54.47;95408.81;10444832;28;1893;-66
2023/08/04 23:29:48;;;;;;;;;;;;;;;22.41;54.19;95403.53;10445753;28;1918;-67
2023/08/04 23:34:48;;;;;;;;;;;;;;;22.40;54.31;95392.19;10476890;28;1966;-69
2023/08/04 23:39:49;;;;;;;;;;;;;;;22.39;54.21;95368.72;10472042;28;1870;-67
2023/08/04 23:44:49;;;;;;;;;;;;;;;22.40;54.31;95370.31;10440388;28;4498;-68
2023/08/04 23:49:49;;;;;;;;;;;;;;;22.39;54.20;95369.50;10446484;28;2293;-68
2023/08/04 23:54:49;;;;;;;;;;;;;;;22.39;54.10;95384.56;10447145;28;1941;-67
2023/08/04 23:59:50;;;;;;;;;;;;;;;22.39;54.06;95380.06;10448194;28;1905;-67
